Time;durP1;ratioP1;P1;durP2;ratioP2;P2;SDS_P1;SDS_P2;PMS_P1;PMS_P2;Temp;Humidity;BMP_temperature;BMP_pressure;BME280_temperature;BME280_humidity;BME280_pressure;Samples;Min_cycle;Max_cycle;Signal;HPM_P1;HPM_P2
2021/12/02 00:01:31;;;;;;;3.93;1.13;;;3.10;99.90;;;;;;5024841;28;20170;-78
2021/12/02 00:04:02;;;;;;;4.33;1.40;;;3.10;99.90;;;;;;5028429;28;20182;-78
2021/12/02 00:06:28;;;;;;;9.37;1.50;;;3.10;99.90;;;;;;5019790;28;20191;-78
2021/12/02 00:08:54;;;;;;;7.07;1.43;;;3.10;99.90;;;;;;5005902;28;20199;-78
2021/12/02 00:11:21;;;;;;;4.70;1.37;;;3.00;99.90;;;;;;5019021;28;20206;-78
2021/12/02 00:16:28;;;;;;;6.23;1.30;;;3.00;99.90;;;;;;5058617;28;20189;-79
2021/12/02 00:21:45;;;;;;;10.57;2.10;;;3.10;99.90;;;;;;5023641;28;20206;-78
2021/12/02 00:24:18;;;;;;;5.60;1.43;;;3.00;99.90;;;;;;5031001;28;20198;-78
2021/12/02 00:26:47;;;;;;;7.17;1.80;;;3.00;99.90;;;;;;5019797;28;20189;-78
2021/12/02 00:29:18;;;;;;;7.30;1.60;;;3.00;99.90;;;;;;5016968;28;20186;-79
2021/12/02 00:32:06;;;;;;;5.97;1.47;;;3.00;99.90;;;;;;5007192;28;20205;-79
2021/12/02 00:35:10;;;;;;;9.00;1.83;;;3.00;99.90;;;;;;5023366;28;20205;-79
2021/12/02 00:37:42;;;;;;;8.13;1.70;;;3.00;99.90;;;;;;5034587;28;20197;-79
2021/12/02 00:40:08;;;;;;;11.00;1.50;;;3.00;99.90;;;;;;5013405;28;20197;-78
2021/12/02 00:42:35;;;;;;;11.23;2.10;;;3.00;99.90;;;;;;5020548;28;20178;-79
2021/12/02 00:45:02;;;;;;;8.07;1.80;;;3.00;99.90;;;;;;5007693;28;20213;-79
2021/12/02 00:47:28;;;;;;;6.10;1.40;;;3.00;99.90;;;;;;5022775;28;20289;-79
2021/12/02 00:49:54;;;;;;;5.57;1.40;;;2.90;99.90;;;;;;5011145;28;20691;-79
2021/12/02 00:52:20;;;;;;;7.93;1.87;;;3.00;99.90;;;;;;5024311;28;20179;-79
2021/12/02 00:54:47;;;;;;;6.87;1.50;;;3.00;99.90;;;;;;5029934;28;20712;-79
2021/12/02 00:57:15;;;;;;;7.80;2.20;;;3.00;99.90;;;;;;5025653;28;20198;-79
2021/12/02 00:59:42;;;;;;;8.10;1.70;;;2.90;99.90;;;;;;5024977;28;20206;-79
2021/12/02 01:02:09;;;;;;;5.67;1.80;;;3.00;99.90;;;;;;5014847;28;20182;-79
2021/12/02 01:04:35;;;;;;;9.87;1.57;;;2.90;99.90;;;;;;5026830;28;20189;-79
2021/12/02 01:07:00;;;;;;;13.07;1.47;;;2.90;99.90;;;;;;5029399;28;20202;-79
2021/12/02 01:09:26;;;;;;;5.13;1.50;;;2.90;99.90;;;;;;5021380;28;20633;-79
2021/12/02 01:11:54;;;;;;;5.87;1.67;;;2.90;99.90;;;;;;5032178;28;20170;-79
2021/12/02 01:14:20;;;;;;;7.13;1.80;;;2.90;99.90;;;;;;5013338;28;20167;-80
2021/12/02 01:16:46;;;;;;;4.27;1.33;;;3.00;99.90;;;;;;5024770;28;20227;-79
2021/12/02 01:19:11;;;;;;;9.40;1.77;;;2.90;99.90;;;;;;5008048;28;20232;-80
2021/12/02 01:21:40;;;;;;;5.27;1.30;;;2.90;99.90;;;;;;5008832;28;20256;-80
2021/12/02 01:24:13;;;;;;;4.73;1.53;;;2.90;99.90;;;;;;5023360;28;20257;-80
2021/12/02 01:26:39;;;;;;;6.67;1.50;;;2.80;99.90;;;;;;5014517;28;20265;-80
2021/12/02 01:29:05;;;;;;;4.87;1.57;;;2.80;99.90;;;;;;5005101;28;20292;-79
2021/12/02 01:31:33;;;;;;;7.67;2.00;;;2.80;99.90;;;;;;5030165;28;20217;-80
2021/12/02 01:34:02;;;;;;;6.80;1.27;;;2.80;99.90;;;;;;5009862;28;20185;-79
2021/12/02 01:36:37;;;;;;;4.83;1.10;;;2.80;99.90;;;;;;5026197;28;20170;-80
2021/12/02 01:39:06;;;;;;;7.90;1.77;;;2.80;99.90;;;;;;5010536;28;20580;-80
2021/12/02 01:41:44;;;;;;;3.87;1.20;;;2.80;99.90;;;;;;5042354;28;20237;-79
2021/12/02 01:44:13;;;;;;;7.07;1.40;;;2.80;99.90;;;;;;5007837;28;20193;-79
2021/12/02 01:46:41;;;;;;;7.43;1.30;;;2.70;99.90;;;;;;5003147;28;20551;-79
2021/12/02 01:49:12;;;;;;;6.87;1.30;;;2.70;99.90;;;;;;4999231;28;20184;-78
2021/12/02 01:51:48;;;;;;;3.40;1.20;;;2.80;99.90;;;;;;5020417;28;20193;-79
2021/12/02 01:54:20;;;;;;;4.87;1.63;;;2.70;99.90;;;;;;5020459;28;20185;-78
2021/12/02 01:56:52;;;;;;;3.43;1.23;;;2.70;99.90;;;;;;5015958;28;20178;-79
2021/12/02 01:59:23;;;;;;;7.10;1.23;;;2.70;99.90;;;;;;5022668;28;20205;-79
2021/12/02 02:01:51;;;;;;;6.57;1.40;;;2.70;99.90;;;;;;5005892;28;20625;-78
2021/12/02 02:04:20;;;;;;;4.90;1.43;;;2.60;99.90;;;;;;5018073;28;20182;-79
2021/12/02 02:07:02;;;;;;;7.47;1.10;;;2.60;99.90;;;;;;5016923;28;20198;-78
2021/12/02 02:09:41;;;;;;;3.67;1.00;;;2.60;99.90;;;;;;5017447;28;20183;-78
2021/12/02 02:12:10;;;;;;;4.60;1.30;;;2.50;99.90;;;;;;5012455;28;20174;-78
2021/12/02 02:14:36;;;;;;;3.50;1.40;;;2.50;99.90;;;;;;5006465;28;20185;-78
2021/12/02 02:17:12;;;;;;;3.37;0.80;;;2.50;99.90;;;;;;5020445;28;20203;-78
2021/12/02 02:19:38;;;;;;;5.43;1.53;;;2.40;99.90;;;;;;5010013;28;20244;-78
2021/12/02 02:22:12;;;;;;;4.53;1.33;;;2.40;99.90;;;;;;5017645;28;20244;-79
2021/12/02 02:24:39;;;;;;;5.97;1.30;;;2.40;99.90;;;;;;5021276;28;20167;-78
2021/12/02 02:27:11;;;;;;;3.63;1.07;;;2.40;99.90;;;;;;5005260;28;20206;-78
2021/12/02 02:29:37;;;;;;;6.40;1.17;;;2.40;99.90;;;;;;5015415;28;20237;-78
2021/12/02 02:32:03;;;;;;;4.33;1.13;;;2.40;99.90;;;;;;5021553;28;20173;-78
2021/12/02 02:34:28;;;;;;;2.03;1.00;;;2.40;99.90;;;;;;5017110;28;20178;-79
2021/12/02 02:37:00;;;;;;;1.97;0.80;;;2.30;99.90;;;;;;5019153;28;20178;-79
2021/12/02 02:39:38;;;;;;;4.43;1.10;;;2.30;99.90;;;;;;5023748;28;20193;-78
2021/12/02 02:42:06;;;;;;;6.30;1.10;;;2.30;99.90;;;;;;4998534;28;20553;-78
2021/12/02 02:44:34;;;;;;;4.63;0.77;;;2.30;99.90;;;;;;5016944;28;20626;-78
2021/12/02 02:47:04;;;;;;;1.57;0.80;;;2.40;99.90;;;;;;5002865;28;20181;-78
2021/12/02 02:49:30;;;;;;;3.07;1.03;;;2.40;99.90;;;;;;5014827;28;20689;-78
2021/12/02 02:51:56;;;;;;;2.67;0.80;;;2.30;99.90;;;;;;5016635;28;20215;-78
2021/12/02 02:54:23;;;;;;;2.90;0.80;;;2.20;99.90;;;;;;5003197;28;20519;-78
2021/12/02 02:57:05;;;;;;;3.60;1.10;;;2.30;99.90;;;;;;5009560;28;20198;-78
2021/12/02 03:05:00;;;;;;;4.00;0.83;;;2.20;99.90;;;;;;5037462;28;20244;-79
2021/12/02 03:07:37;;;;;;;1.13;0.70;;;2.10;99.90;;;;;;5001534;28;20195;-79
2021/12/02 03:13:23;;;;;;;2.07;0.80;;;2.00;99.90;;;;;;5022583;28;20321;-78
2021/12/02 03:18:35;;;;;;;2.20;0.83;;;2.00;99.90;;;;;;5018704;28;20222;-77
2021/12/02 03:21:01;;;;;;;3.20;0.80;;;2.00;99.90;;;;;;5023351;28;20264;-76
2021/12/02 03:23:48;;;;;;;1.90;0.87;;;2.00;99.90;;;;;;5018101;28;20212;-76
2021/12/02 03:26:14;;;;;;;2.37;0.77;;;2.00;99.90;;;;;;4999653;28;20178;-77
2021/12/02 03:28:39;;;;;;;5.97;1.00;;;2.00;99.90;;;;;;5009041;28;20205;-78
2021/12/02 03:31:09;;;;;;;4.80;1.20;;;1.90;99.90;;;;;;5005490;28;20201;-77
2021/12/02 03:33:44;;;;;;;4.23;0.77;;;1.90;99.90;;;;;;5015549;28;20621;-77
2021/12/02 03:36:12;;;;;;;4.67;1.07;;;1.70;99.90;;;;;;4998290;28;20182;-77
2021/12/02 03:38:38;;;;;;;6.83;1.43;;;1.70;99.90;;;;;;5019080;28;20191;-78
2021/12/02 03:41:04;;;;;;;5.23;0.90;;;1.70;99.90;;;;;;5010385;28;20269;-78
2021/12/02 03:43:35;;;;;;;6.77;1.27;;;1.70;99.90;;;;;;5020989;28;20258;-79
2021/12/02 03:46:00;;;;;;;3.73;0.90;;;1.70;99.90;;;;;;5010219;28;20182;-79
2021/12/02 03:48:26;;;;;;;5.17;1.23;;;1.70;99.90;;;;;;5022768;28;20564;-79
2021/12/02 03:50:52;;;;;;;2.53;1.20;;;1.60;99.90;;;;;;5029292;28;20221;-78
2021/12/02 03:53:18;;;;;;;2.67;0.97;;;1.70;99.90;;;;;;5007011;28;20185;-78
2021/12/02 03:55:43;;;;;;;2.57;0.80;;;1.60;99.90;;;;;;5030220;28;20174;-78
2021/12/02 03:58:09;;;;;;;2.17;0.90;;;1.70;99.90;;;;;;5012540;28;20255;-78
2021/12/02 04:00:55;;;;;;;3.60;0.97;;;1.70;99.90;;;;;;5000102;28;20179;-78
2021/12/02 04:03:21;;;;;;;3.10;0.73;;;1.50;99.90;;;;;;5018491;28;20276;-77
2021/12/02 04:05:51;;;;;;;2.23;0.80;;;1.50;99.90;;;;;;4997266;28;20183;-77
2021/12/02 04:08:18;;;;;;;4.70;1.10;;;1.50;99.90;;;;;;5007819;28;20202;-78
2021/12/02 04:10:44;;;;;;;3.70;1.30;;;1.40;99.90;;;;;;5022510;28;20237;-77
2021/12/02 04:13:25;;;;;;;3.50;1.40;;;1.40;99.90;;;;;;5025887;28;20481;-78
2021/12/02 04:15:57;;;;;;;6.83;1.40;;;1.30;99.90;;;;;;5018578;28;20278;-77
2021/12/02 04:18:23;;;;;;;4.23;1.30;;;1.20;99.90;;;;;;5023253;28;20218;-78
2021/12/02 04:21:09;;;;;;;2.60;0.80;;;1.20;99.90;;;;;;5030238;28;20184;-77
2021/12/02 04:23:35;;;;;;;3.70;1.07;;;1.30;99.90;;;;;;5024525;28;20229;-77
2021/12/02 04:26:26;;;;;;;3.07;0.90;;;1.20;99.90;;;;;;5027108;28;20177;-78
2021/12/02 04:28:51;;;;;;;2.73;1.03;;;1.20;99.90;;;;;;5028680;28;20198;-77
2021/12/02 04:31:17;;;;;;;6.57;1.13;;;1.20;99.90;;;;;;5009416;28;20197;-78
2021/12/02 04:33:43;;;;;;;3.30;1.00;;;1.30;99.90;;;;;;5013960;28;20181;-78
2021/12/02 04:36:09;;;;;;;4.30;0.73;;;1.20;99.90;;;;;;5002553;28;20182;-78
2021/12/02 04:38:35;;;;;;;2.87;0.90;;;1.20;99.90;;;;;;5026875;28;20194;-78
2021/12/02 04:41:01;;;;;;;3.23;0.90;;;1.20;99.90;;;;;;4999078;28;20550;-78
2021/12/02 04:43:27;;;;;;;8.07;1.47;;;1.30;99.90;;;;;;5011524;28;20176;-80
2021/12/02 04:45:53;;;;;;;3.60;0.90;;;1.30;99.90;;;;;;5026190;28;20205;-78
2021/12/02 04:48:20;;;;;;;6.10;1.17;;;1.30;99.90;;;;;;5003674;28;20202;-78
2021/12/02 04:50:46;;;;;;;1.07;0.60;;;1.20;99.90;;;;;;5017998;28;20210;-78
2021/12/02 04:53:11;;;;;;;5.07;1.23;;;1.30;99.90;;;;;;5025242;28;20198;-78
2021/12/02 04:55:38;;;;;;;1.73;0.80;;;1.20;99.90;;;;;;5007669;28;20205;-78
2021/12/02 04:58:04;;;;;;;2.60;0.77;;;1.20;99.90;;;;;;4998451;28;20293;-78
2021/12/02 05:00:30;;;;;;;4.07;1.10;;;1.30;99.90;;;;;;5023385;28;20268;-78
2021/12/02 05:02:56;;;;;;;4.20;1.10;;;1.30;99.90;;;;;;5006697;28;20185;-77
2021/12/02 05:05:24;;;;;;;4.07;1.40;;;1.20;99.90;;;;;;5003062;28;20206;-77
2021/12/02 05:07:53;;;;;;;5.77;1.30;;;1.20;99.90;;;;;;5003715;28;20202;-78
2021/12/02 05:10:19;;;;;;;1.10;0.67;;;1.20;99.90;;;;;;5020640;28;20553;-77
2021/12/02 05:12:45;;;;;;;3.77;1.10;;;1.20;99.90;;;;;;5005646;28;20170;-78
2021/12/02 05:15:10;;;;;;;5.07;0.90;;;1.20;99.90;;;;;;5015499;28;20179;-78
2021/12/02 05:17:36;;;;;;;4.93;0.90;;;1.30;99.90;;;;;;5018139;28;20722;-77
2021/12/02 05:20:04;;;;;;;6.83;0.90;;;1.30;99.90;;;;;;5017165;28;20178;-77
2021/12/02 05:22:29;;;;;;;3.83;1.20;;;1.30;99.90;;;;;;5020317;28;20182;-79
2021/12/02 05:24:55;;;;;;;2.73;1.10;;;1.30;99.90;;;;;;5031974;28;20232;-78
2021/12/02 05:27:21;;;;;;;4.80;1.03;;;1.20;99.90;;;;;;5025054;28;20189;-78
2021/12/02 05:29:47;;;;;;;4.40;1.30;;;1.20;99.90;;;;;;5024778;28;20201;-77
2021/12/02 05:32:13;;;;;;;4.77;1.20;;;1.30;99.90;;;;;;5021518;28;20181;-77
2021/12/02 05:34:38;;;;;;;5.63;1.50;;;1.30;99.90;;;;;;5001192;28;20171;-78
2021/12/02 05:37:04;;;;;;;3.80;1.30;;;1.20;99.90;;;;;;5006057;28;20194;-77
2021/12/02 05:39:30;;;;;;;8.53;2.10;;;1.30;99.90;;;;;;5024247;28;20174;-78
2021/12/02 05:41:56;;;;;;;5.10;1.90;;;1.30;99.90;;;;;;5003535;28;20178;-78
2021/12/02 05:44:23;;;;;;;5.83;1.63;;;1.30;99.90;;;;;;5009481;28;20178;-79
2021/12/02 05:46:51;;;;;;;4.43;1.67;;;1.30;99.90;;;;;;5015256;28;20255;-78
2021/12/02 05:49:18;;;;;;;3.23;1.10;;;1.30;99.90;;;;;;5003690;28;20186;-77
2021/12/02 05:51:45;;;;;;;4.67;1.40;;;1.20;99.90;;;;;;5015905;28;20684;-77
2021/12/02 05:54:28;;;;;;;2.27;0.93;;;1.30;99.90;;;;;;5008231;28;20269;-77
2021/12/02 05:56:55;;;;;;;7.03;1.17;;;1.30;99.90;;;;;;5006702;28;20281;-77
2021/12/02 05:59:20;;;;;;;4.73;1.13;;;1.20;99.90;;;;;;5019153;28;20214;-77
2021/12/02 06:01:46;;;;;;;7.43;1.33;;;1.20;99.90;;;;;;5014402;28;20257;-78
2021/12/02 06:04:12;;;;;;;4.40;1.50;;;1.20;99.90;;;;;;4998716;28;20220;-78
2021/12/02 06:06:38;;;;;;;6.67;1.03;;;1.10;99.90;;;;;;5015820;28;20221;-78
2021/12/02 06:09:05;;;;;;;6.70;1.27;;;1.20;99.90;;;;;;5008230;28;20194;-78
2021/12/02 06:11:31;;;;;;;8.33;1.60;;;1.20;99.90;;;;;;5022992;28;20276;-78
2021/12/02 06:13:56;;;;;;;6.33;1.30;;;1.20;99.90;;;;;;5013357;28;20232;-78
2021/12/02 06:16:22;;;;;;;3.50;1.10;;;1.20;99.90;;;;;;5014890;28;20182;-78
2021/12/02 06:18:51;;;;;;;6.37;1.20;;;1.20;99.90;;;;;;5018223;28;20686;-78
2021/12/02 06:21:16;;;;;;;6.97;1.50;;;1.10;99.90;;;;;;5026340;28;20174;-78
2021/12/02 06:23:57;;;;;;;8.47;1.33;;;1.10;99.90;;;;;;5013553;28;20181;-78
2021/12/02 06:26:23;;;;;;;9.13;2.07;;;1.10;99.90;;;;;;5011214;28;20170;-78
2021/12/02 06:28:49;;;;;;;8.73;1.60;;;1.10;99.90;;;;;;5020692;28;20677;-78
2021/12/02 06:31:15;;;;;;;7.93;1.43;;;1.10;99.90;;;;;;5004109;28;20206;-78
2021/12/02 06:33:40;;;;;;;6.43;1.27;;;1.10;99.90;;;;;;5022385;28;20269;-78
2021/12/02 06:36:23;;;;;;;6.43;1.60;;;1.10;99.90;;;;;;5018154;28;20174;-78
2021/12/02 06:38:49;;;;;;;8.17;1.50;;;1.10;99.90;;;;;;5005054;28;20222;-78
2021/12/02 06:41:16;;;;;;;5.00;1.37;;;1.10;99.90;;;;;;5010751;28;20255;-78
2021/12/02 06:43:41;;;;;;;4.87;1.47;;;1.00;99.90;;;;;;5020322;28;20178;-78
2021/12/02 06:46:07;;;;;;;10.17;1.90;;;1.00;99.90;;;;;;5006632;28;20186;-78
2021/12/02 06:48:33;;;;;;;6.73;1.57;;;1.00;99.90;;;;;;5004358;28;20200;-78
2021/12/02 06:50:58;;;;;;;8.37;1.80;;;1.10;99.90;;;;;;5003445;28;20202;-78
2021/12/02 06:53:35;;;;;;;6.03;1.73;;;1.00;99.90;;;;;;5028239;28;20259;-78
2021/12/02 06:56:01;;;;;;;6.80;1.77;;;1.00;99.90;;;;;;4999118;28;20174;-78
2021/12/02 06:58:26;;;;;;;4.77;1.43;;;1.00;99.90;;;;;;5002829;28;20202;-78
2021/12/02 07:00:52;;;;;;;6.47;1.60;;;1.10;99.90;;;;;;4995657;28;20523;-78
2021/12/02 07:03:18;;;;;;;9.87;1.73;;;1.00;99.90;;;;;;5009654;28;20213;-78
2021/12/02 07:05:44;;;;;;;7.47;1.57;;;1.00;99.90;;;;;;5009852;28;20201;-78
2021/12/02 07:08:23;;;;;;;6.57;1.47;;;1.00;99.90;;;;;;5022231;28;20205;-79
2021/12/02 07:10:50;;;;;;;7.77;2.07;;;1.10;99.90;;;;;;5001387;28;20266;-78
2021/12/02 07:13:16;;;;;;;6.30;1.60;;;1.00;99.90;;;;;;5018814;28;20174;-78
2021/12/02 07:15:44;;;;;;;7.13;1.80;;;1.10;99.90;;;;;;5017638;28;20174;-78
2021/12/02 07:18:14;;;;;;;5.73;1.33;;;1.10;99.90;;;;;;5015470;28;20220;-78
2021/12/02 07:20:43;;;;;;;6.47;1.50;;;1.00;99.90;;;;;;5024746;28;20212;-78
2021/12/02 07:23:09;;;;;;;6.20;1.80;;;1.00;99.90;;;;;;5003269;28;20181;-78
2021/12/02 07:25:35;;;;;;;4.70;1.47;;;1.00;99.90;;;;;;5004235;28;20185;-78
2021/12/02 07:28:01;;;;;;;4.13;1.33;;;1.00;99.90;;;;;;5001363;28;20199;-78
2021/12/02 07:30:55;;;;;;;8.77;1.83;;;1.00;99.90;;;;;;5004097;28;20206;-77
2021/12/02 07:33:21;;;;;;;4.60;1.67;;;1.00;99.90;;;;;;5016473;28;20265;-77
2021/12/02 07:35:48;;;;;;;5.50;1.90;;;1.10;99.90;;;;;;4999213;28;20170;-77
2021/12/02 07:38:14;;;;;;;8.40;1.90;;;1.10;99.90;;;;;;5013626;28;20201;-78
2021/12/02 07:40:41;;;;;;;6.90;1.47;;;1.00;99.90;;;;;;5030556;28;20498;-78
2021/12/02 07:43:10;;;;;;;7.57;1.40;;;1.00;99.90;;;;;;5014077;28;20178;-78
2021/12/02 07:45:36;;;;;;;7.47;1.60;;;1.00;99.90;;;;;;5016966;28;20655;-78
2021/12/02 07:48:05;;;;;;;6.73;1.93;;;1.00;99.90;;;;;;5019879;28;20202;-78
2021/12/02 07:50:31;;;;;;;8.83;1.80;;;1.00;99.90;;;;;;4998268;28;20201;-78
2021/12/02 07:53:05;;;;;;;9.97;1.60;;;0.90;99.90;;;;;;5021624;28;20178;-78
2021/12/02 07:55:51;;;;;;;5.30;1.63;;;0.90;99.90;;;;;;5043549;28;20173;-78
2021/12/02 07:58:22;;;;;;;6.17;1.47;;;0.90;99.90;;;;;;5029746;28;20286;-78
2021/12/02 08:00:50;;;;;;;4.63;1.37;;;0.90;99.90;;;;;;5025631;28;20661;-78
2021/12/02 08:03:17;;;;;;;5.20;1.80;;;1.00;99.90;;;;;;5026562;28;20181;-78
2021/12/02 08:05:43;;;;;;;8.03;1.57;;;1.00;99.90;;;;;;5004026;28;20178;-78
2021/12/02 08:08:10;;;;;;;11.70;1.83;;;1.00;99.90;;;;;;5032918;28;20209;-79
2021/12/02 08:10:36;;;;;;;7.90;1.90;;;1.00;99.90;;;;;;5024590;28;20218;-78
2021/12/02 08:13:07;;;;;;;11.50;2.20;;;1.00;99.90;;;;;;5003000;28;20198;-78
2021/12/02 08:15:32;;;;;;;7.37;2.07;;;1.00;99.90;;;;;;5007383;28;20171;-78
2021/12/02 08:17:59;;;;;;;7.37;2.20;;;1.00;99.90;;;;;;5012650;28;20213;-78
2021/12/02 08:20:27;;;;;;;8.83;2.60;;;1.00;99.90;;;;;;5009783;28;20185;-78
2021/12/02 08:22:53;;;;;;;3.40;1.60;;;1.00;99.90;;;;;;5006626;28;20178;-78
2021/12/02 08:25:20;;;;;;;7.53;1.93;;;1.00;99.90;;;;;;5000730;28;20266;-78
2021/12/02 08:27:47;;;;;;;7.87;2.00;;;1.00;99.90;;;;;;5021504;28;20194;-78
2021/12/02 08:30:27;;;;;;;7.43;1.90;;;1.00;99.90;;;;;;5015953;28;20209;-78
2021/12/02 08:33:02;;;;;;;7.27;2.10;;;1.10;99.90;;;;;;5020733;28;20167;-78
2021/12/02 08:35:28;;;;;;;11.47;1.97;;;1.10;99.90;;;;;;5026411;28;20241;-78
2021/12/02 08:38:00;;;;;;;4.50;1.67;;;1.10;99.90;;;;;;5026259;28;20194;-78
2021/12/02 08:40:34;;;;;;;8.13;1.63;;;1.20;99.90;;;;;;4992626;28;20179;-78
2021/12/02 08:43:09;;;;;;;9.50;2.13;;;1.20;99.90;;;;;;5015025;28;20593;-78
2021/12/02 08:45:36;;;;;;;9.87;1.80;;;1.10;99.90;;;;;;5020118;28;20685;-78
2021/12/02 08:48:04;;;;;;;6.07;1.60;;;1.20;99.90;;;;;;5013433;28;20289;-79
2021/12/02 08:50:35;;;;;;;7.63;1.50;;;1.20;99.90;;;;;;5027598;28;20240;-77
2021/12/02 08:53:02;;;;;;;9.23;2.57;;;1.20;99.90;;;;;;5009594;28;20648;-78
2021/12/02 08:55:31;;;;;;;9.53;2.20;;;1.20;99.90;;;;;;5006072;28;20167;-77
2021/12/02 08:58:10;;;;;;;9.17;1.90;;;1.10;99.90;;;;;;5015594;28;20194;-78
2021/12/02 09:00:40;;;;;;;5.97;1.83;;;1.20;99.90;;;;;;5032978;28;20232;-78
2021/12/02 09:03:08;;;;;;;6.00;1.87;;;1.20;99.90;;;;;;5027824;28;20178;-78
2021/12/02 09:05:35;;;;;;;5.90;1.70;;;1.20;99.90;;;;;;5008745;28;20182;-78
2021/12/02 09:08:01;;;;;;;3.97;1.57;;;1.20;99.90;;;;;;5012349;28;20210;-78
2021/12/02 09:10:27;;;;;;;6.87;1.90;;;1.30;99.90;;;;;;5017849;28;20268;-78
2021/12/02 09:12:54;;;;;;;5.63;2.20;;;1.30;99.90;;;;;;5001254;28;20516;-78
2021/12/02 09:15:23;;;;;;;8.17;1.93;;;1.30;99.90;;;;;;5013935;28;20175;-78
2021/12/02 09:17:49;;;;;;;7.33;1.60;;;1.30;99.90;;;;;;4993236;28;20232;-79
2021/12/02 09:20:17;;;;;;;6.67;1.73;;;1.30;99.90;;;;;;5017543;28;20186;-79
2021/12/02 09:22:43;;;;;;;5.47;1.50;;;1.30;99.90;;;;;;5026164;28;20536;-79
2021/12/02 09:25:10;;;;;;;6.27;1.97;;;1.30;99.90;;;;;;5008383;28;20277;-79
2021/12/02 09:27:41;;;;;;;4.13;1.60;;;1.40;99.90;;;;;;5008250;28;20198;-79
2021/12/02 09:30:18;;;;;;;4.83;1.67;;;1.40;99.90;;;;;;5022411;28;20199;-79
2021/12/02 09:32:52;;;;;;;4.53;1.40;;;1.40;99.90;;;;;;5005481;28;20637;-79
2021/12/02 09:35:18;;;;;;;6.93;1.93;;;1.40;99.90;;;;;;5023010;28;20264;-79
2021/12/02 09:37:44;;;;;;;6.17;1.90;;;1.50;99.90;;;;;;5014452;28;20218;-79
2021/12/02 09:40:14;;;;;;;4.40;1.80;;;1.50;99.90;;;;;;5001403;28;20591;-79
2021/12/02 09:42:40;;;;;;;6.90;1.70;;;1.60;99.90;;;;;;5018858;28;20181;-79
2021/12/02 09:45:07;;;;;;;6.63;2.03;;;1.50;99.90;;;;;;5000460;28;20273;-78
2021/12/02 09:47:36;;;;;;;5.03;1.90;;;1.50;99.90;;;;;;5024361;28;20202;-77
2021/12/02 09:50:15;;;;;;;9.47;1.87;;;1.50;99.90;;;;;;5004221;28;20222;-78
2021/12/02 09:52:42;;;;;;;7.50;2.00;;;1.50;99.90;;;;;;5008438;28;20202;-78
2021/12/02 09:55:31;;;;;;;6.47;2.13;;;1.60;99.90;;;;;;5024051;28;20173;-78
2021/12/02 09:58:01;;;;;;;5.30;1.80;;;1.50;99.90;;;;;;5020372;28;20599;-78
2021/12/02 10:00:41;;;;;;;7.97;1.90;;;1.60;99.90;;;;;;5011674;28;20630;-78
2021/12/02 10:03:25;;;;;;;5.13;1.90;;;1.50;99.90;;;;;;4995363;28;20237;-78
2021/12/02 10:06:09;;;;;;;5.73;1.90;;;1.60;99.90;;;;;;5012050;28;20688;-79
2021/12/02 10:09:33;;;;;;;3.83;2.00;;;1.70;99.90;;;;;;5014049;28;20206;-78
2021/12/02 10:11:56;;;;;;;5.10;1.70;;;1.70;99.90;;;;;;5002661;28;20243;-78
2021/12/02 10:14:33;;;;;;;7.37;2.23;;;1.70;99.90;;;;;;4985222;28;20249;-78
2021/12/02 10:17:19;;;;;;;7.67;2.10;;;1.80;99.90;;;;;;4995542;28;20298;-78
2021/12/02 10:20:25;;;;;;;7.57;2.40;;;1.90;99.90;;;;;;5018841;28;20197;-79
2021/12/02 10:23:17;;;;;;;7.87;1.83;;;1.80;99.90;;;;;;5033224;28;20218;-78
2021/12/02 10:25:54;;;;;;;5.23;2.00;;;1.80;99.90;;;;;;5000479;28;20207;-79
2021/12/02 10:28:20;;;;;;;6.87;1.87;;;1.80;99.90;;;;;;5017623;28;20198;-78
2021/12/02 10:30:52;;;;;;;9.23;2.17;;;1.80;99.90;;;;;;5025736;28;20206;-79
2021/12/02 10:33:32;;;;;;;6.17;2.30;;;1.80;99.90;;;;;;5028023;28;20221;-78
2021/12/02 10:36:00;;;;;;;3.03;1.30;;;1.80;99.90;;;;;;5026263;28;20178;-79
2021/12/02 10:38:45;;;;;;;6.50;1.73;;;1.80;99.90;;;;;;5008162;28;20194;-79
2021/12/02 10:41:17;;;;;;;5.87;1.67;;;1.80;99.90;;;;;;5016793;28;20701;-79
2021/12/02 10:44:06;;;;;;;7.60;2.07;;;1.80;99.90;;;;;;5003646;28;20186;-79
2021/12/02 10:46:34;;;;;;;6.53;1.67;;;1.80;99.90;;;;;;5037884;28;20645;-79
2021/12/02 10:49:00;;;;;;;7.00;2.40;;;1.90;99.90;;;;;;5014252;28;20296;-80
2021/12/02 10:51:44;;;;;;;4.33;1.57;;;1.90;99.90;;;;;;5007743;28;20230;-79
2021/12/02 10:54:13;;;;;;;7.90;2.17;;;1.90;99.90;;;;;;4998021;28;20221;-79
2021/12/02 10:56:46;;;;;;;7.30;2.17;;;1.90;99.90;;;;;;5025848;28;20270;-79
2021/12/02 10:59:30;;;;;;;4.53;1.83;;;1.90;99.90;;;;;;5009531;28;20198;-78
2021/12/02 11:02:03;;;;;;;6.40;2.20;;;1.90;99.90;;;;;;5008813;28;20189;-78
2021/12/02 11:04:43;;;;;;;3.17;1.87;;;2.00;99.90;;;;;;5006661;28;20197;-81
2021/12/02 11:07:33;;;;;;;4.67;1.73;;;2.10;99.90;;;;;;5011873;28;20198;-79
2021/12/02 11:10:02;;;;;;;8.23;2.43;;;2.10;99.90;;;;;;5003539;28;20210;-78
2021/12/02 11:12:33;;;;;;;9.77;2.23;;;2.10;99.90;;;;;;5020664;28;20634;-79
2021/12/02 11:15:12;;;;;;;13.80;3.33;;;2.10;99.90;;;;;;5009921;28;20202;-79
2021/12/02 11:17:42;;;;;;;16.27;3.27;;;2.20;99.90;;;;;;4993823;28;20206;-79
2021/12/02 11:20:15;;;;;;;5.80;1.77;;;2.40;99.90;;;;;;5026363;28;20186;-78
2021/12/02 11:22:41;;;;;;;16.20;3.70;;;2.50;99.90;;;;;;5019911;28;20202;-79
2021/12/02 11:25:12;;;;;;;8.70;1.60;;;2.50;99.90;;;;;;5013251;28;20630;-79
2021/12/02 11:27:44;;;;;;;17.10;3.60;;;2.40;99.90;;;;;;5007072;28;20198;-79
2021/12/02 11:30:19;;;;;;;8.60;1.90;;;2.60;99.90;;;;;;5005782;28;20205;-79
2021/12/02 11:32:49;;;;;;;11.03;2.13;;;2.70;99.90;;;;;;4999764;28;20178;-79
2021/12/02 11:35:43;;;;;;;7.97;2.80;;;2.70;99.90;;;;;;5037285;28;20305;-79
2021/12/02 11:38:36;;;;;;;8.73;2.70;;;2.70;99.90;;;;;;5037238;28;20195;-79
2021/12/02 11:41:17;;;;;;;5.90;2.50;;;2.70;99.90;;;;;;5019122;28;20538;-78
2021/12/02 11:44:07;;;;;;;6.40;2.20;;;2.60;99.90;;;;;;5006491;28;20277;-79
2021/12/02 11:46:59;;;;;;;5.30;1.90;;;2.80;99.90;;;;;;5008547;28;20174;-78
2021/12/02 11:49:25;;;;;;;6.77;1.60;;;2.80;99.90;;;;;;5002382;28;20177;-79
2021/12/02 11:54:42;;;;;;;10.20;2.03;;;2.70;99.90;;;;;;5038024;28;20274;-79
2021/12/02 11:57:09;;;;;;;3.97;1.50;;;2.70;99.90;;;;;;5022855;28;20200;-79
2021/12/02 11:59:42;;;;;;;7.57;1.80;;;2.70;99.90;;;;;;5003797;28;20174;-79
2021/12/02 12:02:19;;;;;;;3.83;1.47;;;2.60;99.90;;;;;;5012691;28;20217;-79
2021/12/02 12:05:15;;;;;;;8.33;1.63;;;2.60;99.90;;;;;;5020930;28;20241;-79
2021/12/02 12:07:47;;;;;;;3.37;1.20;;;2.60;99.90;;;;;;5020892;28;20210;-79
2021/12/02 12:10:17;;;;;;;7.63;1.70;;;2.60;99.90;;;;;;5013754;28;20186;-79
2021/12/02 12:12:44;;;;;;;4.40;1.67;;;2.60;99.90;;;;;;5019592;28;20186;-79
2021/12/02 12:15:50;;;;;;;5.70;2.20;;;2.70;99.90;;;;;;5008832;28;20588;-79
2021/12/02 12:18:36;;;;;;;5.23;1.67;;;2.60;99.90;;;;;;5014026;28;20647;-79
2021/12/02 12:21:12;;;;;;;5.77;1.73;;;2.60;99.90;;;;;;5008556;28;20240;-79
2021/12/02 12:23:59;;;;;;;5.57;1.53;;;2.50;99.90;;;;;;5015085;28;20198;-78
2021/12/02 12:26:39;;;;;;;5.83;1.57;;;2.50;99.90;;;;;;5008073;28;20185;-78
2021/12/02 12:29:08;;;;;;;4.80;1.67;;;2.50;99.90;;;;;;5022104;28;20256;-78
2021/12/02 12:33:00;;;;;;;8.00;1.80;;;2.60;99.90;;;;;;5041943;28;20202;-78
2021/12/02 12:35:07;;;;;;;6.07;1.57;;;2.30;99.90;;;;;;5009061;28;20190;-77
2021/12/02 12:40:37;;;;;;;5.93;2.07;;;1.90;99.90;;;;;;5030954;28;20174;-77
2021/12/02 12:43:02;;;;;;;6.07;1.40;;;1.90;99.90;;;;;;5006990;28;20179;-78
2021/12/02 12:45:39;;;;;;;5.10;1.50;;;1.80;99.90;;;;;;4999244;28;20634;-78
2021/12/02 12:48:08;;;;;;;10.70;2.07;;;1.80;99.90;;;;;;5009783;28;20198;-78
2021/12/02 12:50:46;;;;;;;3.37;1.50;;;1.80;99.90;;;;;;5010139;28;20194;-78
2021/12/02 12:53:18;;;;;;;7.53;1.70;;;1.90;99.90;;;;;;5007969;28;20229;-79
2021/12/02 12:55:54;;;;;;;5.67;1.57;;;1.90;99.90;;;;;;5022289;28;20245;-79
2021/12/02 12:58:37;;;;;;;6.77;2.13;;;1.90;99.90;;;;;;5030860;28;20751;-78
2021/12/02 13:01:24;;;;;;;5.93;2.00;;;1.90;99.90;;;;;;5007994;28;20534;-76
2021/12/02 13:04:27;;;;;;;5.27;1.60;;;2.00;99.90;;;;;;5002535;28;20188;-78
2021/12/02 13:07:05;;;;;;;7.73;1.90;;;2.00;99.90;;;;;;4997129;28;21623;-79
2021/12/02 13:09:50;;;;;;;4.00;1.60;;;2.10;99.90;;;;;;5018003;28;20217;-79
2021/12/02 13:12:20;;;;;;;7.40;1.87;;;2.00;99.90;;;;;;5033087;28;20217;-79
2021/12/02 13:14:50;;;;;;;6.77;1.63;;;2.00;99.90;;;;;;5014687;28;20633;-79
2021/12/02 13:17:36;;;;;;;10.43;2.20;;;1.90;99.90;;;;;;5021382;28;20261;-78
2021/12/02 13:20:21;;;;;;;5.43;1.43;;;1.90;99.90;;;;;;5007263;28;20183;-79
2021/12/02 13:23:07;;;;;;;7.00;1.73;;;2.00;99.90;;;;;;4997455;28;20182;-78
2021/12/02 13:25:54;;;;;;;2.97;1.40;;;1.90;99.90;;;;;;5026280;28;20190;-78
2021/12/02 13:28:32;;;;;;;8.13;2.33;;;1.90;99.90;;;;;;5008210;28;20745;-78
2021/12/02 13:31:13;;;;;;;3.73;1.43;;;1.80;99.90;;;;;;5045116;28;20202;-78
2021/12/02 13:33:58;;;;;;;4.67;1.80;;;1.90;99.90;;;;;;5019618;28;20586;-78
2021/12/02 13:36:47;;;;;;;10.10;2.10;;;1.90;99.90;;;;;;5011771;28;20177;-78
2021/12/02 13:39:27;;;;;;;5.63;2.30;;;2.00;99.90;;;;;;5008267;28;20247;-78
2021/12/02 13:42:06;;;;;;;5.90;1.80;;;2.10;99.90;;;;;;5026706;28;20201;-79